sensor_id;sensor_type;location;lat;lon;timestamp;P1;durP1;ratioP1;P2;durP2;ratioP2
12784;SDS011;6456;42.680;23.260;2024-02-28T00:00:18;13.47;;;10.67;;
12784;SDS011;6456;42.680;23.260;2024-02-28T00:02:47;13.33;;;10.63;;
12784;SDS011;6456;42.680;23.260;2024-02-28T00:05:18;15.27;;;10.43;;
12784;SDS011;6456;42.680;23.260;2024-02-28T00:07:46;15.43;;;10.47;;
12784;SDS011;6456;42.680;23.260;2024-02-28T00:10:13;13.50;;;10.73;;
12784;SDS011;6456;42.680;23.260;2024-02-28T00:12:41;15.33;;;10.20;;
12784;SDS011;6456;42.680;23.260;2024-02-28T00:15:10;17.00;;;10.93;;
12784;SDS011;6456;42.680;23.260;2024-02-28T00:17:43;15.43;;;10.73;;
12784;SDS011;6456;42.680;23.260;2024-02-28T00:20:10;20.23;;;11.73;;
12784;SDS011;6456;42.680;23.260;2024-02-28T00:22:39;18.33;;;11.10;;
12784;SDS011;6456;42.680;23.260;2024-02-28T00:25:07;16.20;;;11.23;;
12784;SDS011;6456;42.680;23.260;2024-02-28T00:27:36;16.13;;;11.37;;
12784;SDS011;6456;42.680;23.260;2024-02-28T00:30:04;16.07;;;10.77;;
12784;SDS011;6456;42.680;23.260;2024-02-28T00:32:32;14.53;;;10.67;;
12784;SDS011;6456;42.680;23.260;2024-02-28T00:35:00;18.20;;;11.67;;
12784;SDS011;6456;42.680;23.260;2024-02-28T00:37:30;14.63;;;10.30;;
12784;SDS011;6456;42.680;23.260;2024-02-28T00:39:57;14.20;;;10.77;;
12784;SDS011;6456;42.680;23.260;2024-02-28T00:42:27;13.00;;;10.37;;
12784;SDS011;6456;42.680;23.260;2024-02-28T00:44:55;15.87;;;11.23;;
12784;SDS011;6456;42.680;23.260;2024-02-28T00:47:24;16.50;;;10.57;;
12784;SDS011;6456;42.680;23.260;2024-02-28T00:49:51;19.00;;;11.40;;
12784;SDS011;6456;42.680;23.260;2024-02-28T00:52:20;14.10;;;10.83;;
12784;SDS011;6456;42.680;23.260;2024-02-28T00:54:47;16.70;;;11.17;;
12784;SDS011;6456;42.680;23.260;2024-02-28T00:57:14;18.57;;;11.27;;
12784;SDS011;6456;42.680;23.260;2024-02-28T00:59:41;15.93;;;11.37;;
12784;SDS011;6456;42.680;23.260;2024-02-28T01:02:09;15.43;;;11.63;;
12784;SDS011;6456;42.680;23.260;2024-02-28T01:04:36;17.57;;;10.90;;
12784;SDS011;6456;42.680;23.260;2024-02-28T01:07:03;13.60;;;11.17;;
12784;SDS011;6456;42.680;23.260;2024-02-28T01:09:32;17.23;;;12.03;;
12784;SDS011;6456;42.680;23.260;2024-02-28T01:11:59;16.87;;;11.63;;
12784;SDS011;6456;42.680;23.260;2024-02-28T01:14:26;18.27;;;11.90;;
12784;SDS011;6456;42.680;23.260;2024-02-28T01:16:53;17.60;;;10.77;;
12784;SDS011;6456;42.680;23.260;2024-02-28T01:19:20;17.20;;;11.90;;
12784;SDS011;6456;42.680;23.260;2024-02-28T01:21:47;18.07;;;11.20;;
12784;SDS011;6456;42.680;23.260;2024-02-28T01:24:14;16.73;;;12.07;;
12784;SDS011;6456;42.680;23.260;2024-02-28T01:26:43;19.47;;;12.30;;
12784;SDS011;6456;42.680;23.260;2024-02-28T01:29:10;18.60;;;11.97;;
12784;SDS011;6456;42.680;23.260;2024-02-28T01:31:37;17.57;;;11.43;;
12784;SDS011;6456;42.680;23.260;2024-02-28T01:34:04;16.93;;;12.10;;
12784;SDS011;6456;42.680;23.260;2024-02-28T01:36:31;19.00;;;12.33;;
12784;SDS011;6456;42.680;23.260;2024-02-28T01:38:58;18.97;;;12.67;;
12784;SDS011;6456;42.680;23.260;2024-02-28T01:41:25;18.40;;;12.80;;
12784;SDS011;6456;42.680;23.260;2024-02-28T01:43:53;16.13;;;12.10;;
12784;SDS011;6456;42.680;23.260;2024-02-28T01:46:21;19.93;;;13.33;;
12784;SDS011;6456;42.680;23.260;2024-02-28T01:48:50;22.07;;;14.47;;
12784;SDS011;6456;42.680;23.260;2024-02-28T01:51:18;24.20;;;14.43;;
12784;SDS011;6456;42.680;23.260;2024-02-28T01:53:46;20.63;;;14.73;;
12784;SDS011;6456;42.680;23.260;2024-02-28T01:56:13;22.73;;;15.73;;
12784;SDS011;6456;42.680;23.260;2024-02-28T01:58:42;20.73;;;14.07;;
12784;SDS011;6456;42.680;23.260;2024-02-28T02:01:12;20.70;;;13.80;;
12784;SDS011;6456;42.680;23.260;2024-02-28T02:03:43;21.97;;;13.77;;
12784;SDS011;6456;42.680;23.260;2024-02-28T02:06:10;25.17;;;14.27;;
12784;SDS011;6456;42.680;23.260;2024-02-28T02:08:38;22.77;;;14.60;;
12784;SDS011;6456;42.680;23.260;2024-02-28T02:11:05;29.73;;;19.17;;
12784;SDS011;6456;42.680;23.260;2024-02-28T02:13:33;28.93;;;19.60;;
12784;SDS011;6456;42.680;23.260;2024-02-28T02:16:00;27.93;;;19.13;;
12784;SDS011;6456;42.680;23.260;2024-02-28T02:18:29;26.43;;;17.53;;
12784;SDS011;6456;42.680;23.260;2024-02-28T02:20:59;26.33;;;16.73;;
12784;SDS011;6456;42.680;23.260;2024-02-28T02:23:32;21.73;;;15.87;;
12784;SDS011;6456;42.680;23.260;2024-02-28T02:26:00;22.23;;;15.73;;
12784;SDS011;6456;42.680;23.260;2024-02-28T02:28:27;21.57;;;13.97;;
12784;SDS011;6456;42.680;23.260;2024-02-28T02:30:55;23.13;;;16.13;;
12784;SDS011;6456;42.680;23.260;2024-02-28T02:33:22;21.60;;;14.53;;
12784;SDS011;6456;42.680;23.260;2024-02-28T02:35:49;22.57;;;14.50;;
12784;SDS011;6456;42.680;23.260;2024-02-28T02:38:16;18.63;;;13.73;;
12784;SDS011;6456;42.680;23.260;2024-02-28T02:40:47;27.10;;;15.60;;
12784;SDS011;6456;42.680;23.260;2024-02-28T02:43:15;22.37;;;14.73;;
12784;SDS011;6456;42.680;23.260;2024-02-28T02:45:42;19.80;;;14.77;;
12784;SDS011;6456;42.680;23.260;2024-02-28T02:48:10;22.70;;;14.40;;
12784;SDS011;6456;42.680;23.260;2024-02-28T02:50:37;22.67;;;14.37;;
12784;SDS011;6456;42.680;23.260;2024-02-28T02:53:04;18.63;;;13.63;;
12784;SDS011;6456;42.680;23.260;2024-02-28T02:55:34;21.30;;;13.80;;
12784;SDS011;6456;42.680;23.260;2024-02-28T02:58:03;20.37;;;14.50;;
12784;SDS011;6456;42.680;23.260;2024-02-28T03:00:30;19.53;;;14.30;;
12784;SDS011;6456;42.680;23.260;2024-02-28T03:02:57;18.23;;;14.67;;
12784;SDS011;6456;42.680;23.260;2024-02-28T03:05:24;18.70;;;13.87;;
12784;SDS011;6456;42.680;23.260;2024-02-28T03:07:51;20.27;;;14.83;;
12784;SDS011;6456;42.680;23.260;2024-02-28T03:10:18;17.50;;;14.23;;
12784;SDS011;6456;42.680;23.260;2024-02-28T03:12:45;24.20;;;15.10;;
12784;SDS011;6456;42.680;23.260;2024-02-28T03:15:14;18.80;;;13.60;;
12784;SDS011;6456;42.680;23.260;2024-02-28T03:17:41;25.63;;;14.77;;
12784;SDS011;6456;42.680;23.260;2024-02-28T03:20:08;18.77;;;14.67;;
12784;SDS011;6456;42.680;23.260;2024-02-28T03:22:38;19.43;;;13.73;;
12784;SDS011;6456;42.680;23.260;2024-02-28T03:25:06;21.80;;;15.43;;
12784;SDS011;6456;42.680;23.260;2024-02-28T03:27:33;22.03;;;15.23;;
12784;SDS011;6456;42.680;23.260;2024-02-28T03:30:00;20.60;;;15.70;;
12784;SDS011;6456;42.680;23.260;2024-02-28T03:32:30;21.67;;;14.20;;
12784;SDS011;6456;42.680;23.260;2024-02-28T03:34:57;20.90;;;15.07;;
12784;SDS011;6456;42.680;23.260;2024-02-28T03:37:24;18.53;;;14.40;;
12784;SDS011;6456;42.680;23.260;2024-02-28T03:39:50;21.17;;;15.50;;
12784;SDS011;6456;42.680;23.260;2024-02-28T03:42:17;24.47;;;14.97;;
12784;SDS011;6456;42.680;23.260;2024-02-28T03:44:44;22.17;;;15.27;;
12784;SDS011;6456;42.680;23.260;2024-02-28T03:47:11;19.90;;;14.93;;
12784;SDS011;6456;42.680;23.260;2024-02-28T03:49:40;20.77;;;15.37;;
12784;SDS011;6456;42.680;23.260;2024-02-28T03:52:07;21.33;;;14.73;;
12784;SDS011;6456;42.680;23.260;2024-02-28T03:54:34;22.60;;;15.20;;
12784;SDS011;6456;42.680;23.260;2024-02-28T03:57:01;20.80;;;15.63;;
12784;SDS011;6456;42.680;23.260;2024-02-28T03:59:28;19.30;;;14.97;;
12784;SDS011;6456;42.680;23.260;2024-02-28T04:01:55;22.67;;;15.63;;
12784;SDS011;6456;42.680;23.260;2024-02-28T04:04:22;23.00;;;15.47;;
12784;SDS011;6456;42.680;23.260;2024-02-28T04:06:51;21.33;;;14.77;;
12784;SDS011;6456;42.680;23.260;2024-02-28T04:09:18;23.93;;;15.20;;
12784;SDS011;6456;42.680;23.260;2024-02-28T04:11:46;20.13;;;14.73;;
12784;SDS011;6456;42.680;23.260;2024-02-28T04:14:13;21.43;;;15.57;;
12784;SDS011;6456;42.680;23.260;2024-02-28T04:16:41;23.17;;;15.37;;
12784;SDS011;6456;42.680;23.260;2024-02-28T04:19:09;23.03;;;16.13;;
12784;SDS011;6456;42.680;23.260;2024-02-28T04:21:36;22.53;;;15.63;;
12784;SDS011;6456;42.680;23.260;2024-02-28T04:24:05;23.80;;;15.77;;
12784;SDS011;6456;42.680;23.260;2024-02-28T04:26:33;23.23;;;16.40;;
12784;SDS011;6456;42.680;23.260;2024-02-28T04:29:00;27.17;;;19.27;;
12784;SDS011;6456;42.680;23.260;2024-02-28T04:31:30;29.07;;;19.37;;
12784;SDS011;6456;42.680;23.260;2024-02-28T04:33:57;33.77;;;26.53;;
12784;SDS011;6456;42.680;23.260;2024-02-28T04:36:24;29.03;;;22.90;;
12784;SDS011;6456;42.680;23.260;2024-02-28T04:38:51;27.37;;;19.77;;
12784;SDS011;6456;42.680;23.260;2024-02-28T04:41:20;25.77;;;18.83;;
12784;SDS011;6456;42.680;23.260;2024-02-28T04:43:47;26.77;;;18.93;;
12784;SDS011;6456;42.680;23.260;2024-02-28T04:46:14;26.53;;;17.77;;
12784;SDS011;6456;42.680;23.260;2024-02-28T04:48:41;24.27;;;18.13;;
12784;SDS011;6456;42.680;23.260;2024-02-28T04:51:08;28.63;;;18.43;;
12784;SDS011;6456;42.680;23.260;2024-02-28T04:53:35;26.83;;;17.90;;
12784;SDS011;6456;42.680;23.260;2024-02-28T04:56:02;28.83;;;20.03;;
12784;SDS011;6456;42.680;23.260;2024-02-28T04:58:31;27.60;;;19.03;;
12784;SDS011;6456;42.680;23.260;2024-02-28T05:00:58;31.33;;;20.20;;
12784;SDS011;6456;42.680;23.260;2024-02-28T05:03:25;36.40;;;25.23;;
12784;SDS011;6456;42.680;23.260;2024-02-28T05:05:54;34.60;;;20.87;;
12784;SDS011;6456;42.680;23.260;2024-02-28T05:08:21;40.97;;;28.80;;
12784;SDS011;6456;42.680;23.260;2024-02-28T05:10:49;38.17;;;23.93;;
12784;SDS011;6456;42.680;23.260;2024-02-28T05:13:16;38.73;;;26.00;;
12784;SDS011;6456;42.680;23.260;2024-02-28T05:15:45;30.73;;;22.07;;
12784;SDS011;6456;42.680;23.260;2024-02-28T05:18:12;30.00;;;20.83;;
12784;SDS011;6456;42.680;23.260;2024-02-28T05:20:39;27.70;;;18.90;;
12784;SDS011;6456;42.680;23.260;2024-02-28T05:23:07;27.80;;;18.30;;
12784;SDS011;6456;42.680;23.260;2024-02-28T05:25:37;29.97;;;18.90;;
12784;SDS011;6456;42.680;23.260;2024-02-28T05:28:08;29.87;;;19.03;;
12784;SDS011;6456;42.680;23.260;2024-02-28T05:31:53;28.13;;;18.03;;
12784;SDS011;6456;42.680;23.260;2024-02-28T05:33:57;30.93;;;19.30;;
12784;SDS011;6456;42.680;23.260;2024-02-28T05:36:29;25.27;;;17.47;;
12784;SDS011;6456;42.680;23.260;2024-02-28T05:38:57;27.27;;;17.80;;
12784;SDS011;6456;42.680;23.260;2024-02-28T05:41:26;32.80;;;19.63;;
12784;SDS011;6456;42.680;23.260;2024-02-28T05:43:56;34.47;;;19.47;;
12784;SDS011;6456;42.680;23.260;2024-02-28T05:46:23;29.43;;;20.67;;
12784;SDS011;6456;42.680;23.260;2024-02-28T05:48:50;30.70;;;19.87;;
12784;SDS011;6456;42.680;23.260;2024-02-28T05:51:19;40.03;;;20.93;;
12784;SDS011;6456;42.680;23.260;2024-02-28T05:53:47;28.63;;;19.80;;
12784;SDS011;6456;42.680;23.260;2024-02-28T05:56:14;28.37;;;19.97;;
12784;SDS011;6456;42.680;23.260;2024-02-28T05:58:45;29.27;;;19.27;;
12784;SDS011;6456;42.680;23.260;2024-02-28T06:01:14;32.63;;;19.20;;
12784;SDS011;6456;42.680;23.260;2024-02-28T06:03:42;30.10;;;20.47;;
12784;SDS011;6456;42.680;23.260;2024-02-28T06:06:11;37.33;;;19.80;;
12784;SDS011;6456;42.680;23.260;2024-02-28T06:08:40;27.90;;;19.37;;
12784;SDS011;6456;42.680;23.260;2024-02-28T06:11:08;28.37;;;20.23;;
12784;SDS011;6456;42.680;23.260;2024-02-28T06:13:35;31.87;;;20.43;;
12784;SDS011;6456;42.680;23.260;2024-02-28T06:16:03;31.90;;;19.60;;
12784;SDS011;6456;42.680;23.260;2024-02-28T06:18:30;30.00;;;19.70;;
12784;SDS011;6456;42.680;23.260;2024-02-28T06:20:58;27.27;;;20.10;;
12784;SDS011;6456;42.680;23.260;2024-02-28T06:23:26;40.33;;;20.70;;
12784;SDS011;6456;42.680;23.260;2024-02-28T06:25:55;34.13;;;20.20;;
12784;SDS011;6456;42.680;23.260;2024-02-28T06:28:22;30.63;;;20.00;;
12784;SDS011;6456;42.680;23.260;2024-02-28T06:30:49;31.33;;;20.87;;
12784;SDS011;6456;42.680;23.260;2024-02-28T06:33:18;28.10;;;18.70;;
12784;SDS011;6456;42.680;23.260;2024-02-28T06:35:46;28.67;;;19.27;;
12784;SDS011;6456;42.680;23.260;2024-02-28T06:38:13;29.63;;;20.13;;
12784;SDS011;6456;42.680;23.260;2024-02-28T06:40:40;30.73;;;20.40;;
12784;SDS011;6456;42.680;23.260;2024-02-28T06:43:09;38.97;;;20.17;;
12784;SDS011;6456;42.680;23.260;2024-02-28T06:45:36;33.73;;;22.07;;
12784;SDS011;6456;42.680;23.260;2024-02-28T06:48:06;31.47;;;20.60;;
12784;SDS011;6456;42.680;23.260;2024-02-28T06:50:34;33.43;;;22.67;;
12784;SDS011;6456;42.680;23.260;2024-02-28T06:53:01;36.17;;;22.00;;
12784;SDS011;6456;42.680;23.260;2024-02-28T06:55:29;34.20;;;23.17;;
12784;SDS011;6456;42.680;23.260;2024-02-28T06:57:56;33.13;;;22.23;;
12784;SDS011;6456;42.680;23.260;2024-02-28T07:00:24;31.27;;;22.30;;
12784;SDS011;6456;42.680;23.260;2024-02-28T07:02:51;32.63;;;23.63;;
12784;SDS011;6456;42.680;23.260;2024-02-28T07:05:18;31.07;;;21.10;;
12784;SDS011;6456;42.680;23.260;2024-02-28T07:07:46;35.87;;;21.90;;
12784;SDS011;6456;42.680;23.260;2024-02-28T07:10:13;32.27;;;20.83;;
12784;SDS011;6456;42.680;23.260;2024-02-28T07:12:40;31.10;;;21.90;;
12784;SDS011;6456;42.680;23.260;2024-02-28T07:15:07;31.60;;;19.80;;
12784;SDS011;6456;42.680;23.260;2024-02-28T07:17:36;32.37;;;19.27;;
12784;SDS011;6456;42.680;23.260;2024-02-28T07:20:04;28.80;;;20.30;;
12784;SDS011;6456;42.680;23.260;2024-02-28T07:22:32;32.03;;;20.83;;
12784;SDS011;6456;42.680;23.260;2024-02-28T07:24:59;28.63;;;20.27;;
12784;SDS011;6456;42.680;23.260;2024-02-28T07:27:26;34.57;;;21.20;;
12784;SDS011;6456;42.680;23.260;2024-02-28T07:29:53;31.00;;;21.33;;
12784;SDS011;6456;42.680;23.260;2024-02-28T07:32:20;35.03;;;20.20;;
12784;SDS011;6456;42.680;23.260;2024-02-28T07:34:49;33.13;;;19.80;;
12784;SDS011;6456;42.680;23.260;2024-02-28T07:37:17;28.00;;;19.27;;
12784;SDS011;6456;42.680;23.260;2024-02-28T07:39:44;35.57;;;20.53;;
12784;SDS011;6456;42.680;23.260;2024-02-28T07:42:12;36.27;;;21.70;;
12784;SDS011;6456;42.680;23.260;2024-02-28T07:44:39;32.00;;;20.50;;
12784;SDS011;6456;42.680;23.260;2024-02-28T07:47:06;25.83;;;18.13;;
12784;SDS011;6456;42.680;23.260;2024-02-28T07:49:34;29.20;;;18.67;;
12784;SDS011;6456;42.680;23.260;2024-02-28T07:52:04;32.03;;;20.00;;
12784;SDS011;6456;42.680;23.260;2024-02-28T07:54:31;31.63;;;20.57;;
12784;SDS011;6456;42.680;23.260;2024-02-28T07:56:58;29.53;;;19.23;;
12784;SDS011;6456;42.680;23.260;2024-02-28T07:59:25;26.37;;;18.70;;
12784;SDS011;6456;42.680;23.260;2024-02-28T08:01:52;26.30;;;19.53;;
12784;SDS011;6456;42.680;23.260;2024-02-28T08:04:20;31.07;;;19.43;;
12784;SDS011;6456;42.680;23.260;2024-02-28T08:06:47;24.83;;;18.87;;
12784;SDS011;6456;42.680;23.260;2024-02-28T08:09:22;29.70;;;19.37;;
12784;SDS011;6456;42.680;23.260;2024-02-28T08:11:49;26.10;;;18.13;;
12784;SDS011;6456;42.680;23.260;2024-02-28T08:14:19;29.13;;;17.40;;
12784;SDS011;6456;42.680;23.260;2024-02-28T08:16:47;26.73;;;17.70;;
12784;SDS011;6456;42.680;23.260;2024-02-28T08:19:14;26.67;;;17.43;;
12784;SDS011;6456;42.680;23.260;2024-02-28T08:26:56;28.73;;;16.90;;
12784;SDS011;6456;42.680;23.260;2024-02-28T08:29:25;23.73;;;16.93;;
12784;SDS011;6456;42.680;23.260;2024-02-28T08:31:52;22.57;;;17.37;;
12784;SDS011;6456;42.680;23.260;2024-02-28T08:34:19;28.70;;;18.60;;
12784;SDS011;6456;42.680;23.260;2024-02-28T08:36:46;31.77;;;21.10;;
12784;SDS011;6456;42.680;23.260;2024-02-28T08:39:18;35.73;;;20.63;;
12784;SDS011;6456;42.680;23.260;2024-02-28T08:42:07;27.57;;;17.53;;
12784;SDS011;6456;42.680;23.260;2024-02-28T08:44:34;26.90;;;18.23;;
12784;SDS011;6456;42.680;23.260;2024-02-28T08:47:05;25.50;;;16.77;;
12784;SDS011;6456;42.680;23.260;2024-02-28T08:49:36;24.90;;;17.67;;
12784;SDS011;6456;42.680;23.260;2024-02-28T08:52:05;24.10;;;17.77;;
12784;SDS011;6456;42.680;23.260;2024-02-28T08:54:32;34.10;;;18.83;;
12784;SDS011;6456;42.680;23.260;2024-02-28T08:56:59;26.90;;;18.57;;
12784;SDS011;6456;42.680;23.260;2024-02-28T08:59:28;26.20;;;18.60;;
12784;SDS011;6456;42.680;23.260;2024-02-28T09:01:58;26.23;;;19.60;;
12784;SDS011;6456;42.680;23.260;2024-02-28T09:04:25;34.93;;;20.63;;
12784;SDS011;6456;42.680;23.260;2024-02-28T09:06:53;26.10;;;19.13;;
12784;SDS011;6456;42.680;23.260;2024-02-28T09:09:23;25.27;;;18.50;;
12784;SDS011;6456;42.680;23.260;2024-02-28T09:11:50;27.77;;;19.40;;
12784;SDS011;6456;42.680;23.260;2024-02-28T09:14:21;28.37;;;18.97;;
12784;SDS011;6456;42.680;23.260;2024-02-28T09:16:50;28.67;;;18.80;;
12784;SDS011;6456;42.680;23.260;2024-02-28T09:19:17;25.83;;;18.93;;
12784;SDS011;6456;42.680;23.260;2024-02-28T09:21:45;30.27;;;18.93;;
12784;SDS011;6456;42.680;23.260;2024-02-28T09:24:14;26.10;;;19.83;;
12784;SDS011;6456;42.680;23.260;2024-02-28T09:26:43;31.20;;;19.47;;
12784;SDS011;6456;42.680;23.260;2024-02-28T09:29:10;28.17;;;19.53;;
12784;SDS011;6456;42.680;23.260;2024-02-28T09:31:38;28.13;;;18.87;;
12784;SDS011;6456;42.680;23.260;2024-02-28T09:34:06;27.13;;;18.80;;
12784;SDS011;6456;42.680;23.260;2024-02-28T09:36:40;28.50;;;19.87;;
12784;SDS011;6456;42.680;23.260;2024-02-28T09:39:07;29.93;;;19.90;;
12784;SDS011;6456;42.680;23.260;2024-02-28T09:41:34;32.47;;;20.50;;
12784;SDS011;6456;42.680;23.260;2024-02-28T09:44:05;28.77;;;18.83;;
12784;SDS011;6456;42.680;23.260;2024-02-28T09:46:33;30.70;;;18.53;;
12784;SDS011;6456;42.680;23.260;2024-02-28T09:49:01;26.93;;;18.00;;
12784;SDS011;6456;42.680;23.260;2024-02-28T09:51:31;31.27;;;20.00;;
12784;SDS011;6456;42.680;23.260;2024-02-28T09:54:00;31.40;;;19.93;;
12784;SDS011;6456;42.680;23.260;2024-02-28T09:56:30;28.03;;;19.30;;
12784;SDS011;6456;42.680;23.260;2024-02-28T09:58:58;30.27;;;18.37;;
12784;SDS011;6456;42.680;23.260;2024-02-28T10:01:29;25.27;;;18.13;;
12784;SDS011;6456;42.680;23.260;2024-02-28T10:03:57;25.47;;;17.93;;
12784;SDS011;6456;42.680;23.260;2024-02-28T10:06:27;27.40;;;18.80;;
12784;SDS011;6456;42.680;23.260;2024-02-28T10:08:55;27.37;;;18.47;;
12784;SDS011;6456;42.680;23.260;2024-02-28T10:11:22;30.33;;;18.13;;
12784;SDS011;6456;42.680;23.260;2024-02-28T10:13:52;27.23;;;18.27;;
12784;SDS011;6456;42.680;23.260;2024-02-28T10:16:20;29.27;;;18.90;;
12784;SDS011;6456;42.680;23.260;2024-02-28T10:18:47;30.53;;;17.03;;
12784;SDS011;6456;42.680;23.260;2024-02-28T10:21:14;24.67;;;17.33;;
12784;SDS011;6456;42.680;23.260;2024-02-28T10:23:47;25.30;;;18.07;;
12784;SDS011;6456;42.680;23.260;2024-02-28T10:26:17;45.40;;;18.77;;
12784;SDS011;6456;42.680;23.260;2024-02-28T10:28:44;24.93;;;18.27;;
12784;SDS011;6456;42.680;23.260;2024-02-28T10:31:11;21.93;;;17.60;;
12784;SDS011;6456;42.680;23.260;2024-02-28T10:33:38;28.93;;;16.50;;
12784;SDS011;6456;42.680;23.260;2024-02-28T10:36:07;37.70;;;17.30;;
12784;SDS011;6456;42.680;23.260;2024-02-28T10:38:36;27.30;;;17.67;;
12784;SDS011;6456;42.680;23.260;2024-02-28T10:41:04;26.77;;;17.77;;
12784;SDS011;6456;42.680;23.260;2024-02-28T10:43:34;28.60;;;17.63;;
12784;SDS011;6456;42.680;23.260;2024-02-28T10:46:01;25.37;;;17.57;;
12784;SDS011;6456;42.680;23.260;2024-02-28T10:48:28;26.27;;;16.27;;
12784;SDS011;6456;42.680;23.260;2024-02-28T10:50:55;24.23;;;16.50;;
12784;SDS011;6456;42.680;23.260;2024-02-28T10:53:26;23.47;;;17.03;;
12784;SDS011;6456;42.680;23.260;2024-02-28T10:56:03;26.10;;;16.07;;
12784;SDS011;6456;42.680;23.260;2024-02-28T10:58:33;24.00;;;15.40;;
12784;SDS011;6456;42.680;23.260;2024-02-28T11:01:03;20.70;;;15.70;;
12784;SDS011;6456;42.680;23.260;2024-02-28T11:03:31;24.13;;;15.07;;
12784;SDS011;6456;42.680;23.260;2024-02-28T11:05:59;20.60;;;14.67;;
12784;SDS011;6456;42.680;23.260;2024-02-28T11:08:26;18.83;;;13.70;;
12784;SDS011;6456;42.680;23.260;2024-02-28T11:10:55;25.37;;;15.57;;
12784;SDS011;6456;42.680;23.260;2024-02-28T11:13:22;24.07;;;14.77;;
12784;SDS011;6456;42.680;23.260;2024-02-28T11:15:52;20.63;;;15.47;;
12784;SDS011;6456;42.680;23.260;2024-02-28T11:18:20;20.50;;;14.17;;
12784;SDS011;6456;42.680;23.260;2024-02-28T11:20:47;21.63;;;13.63;;
12784;SDS011;6456;42.680;23.260;2024-02-28T11:23:17;16.67;;;13.23;;
12784;SDS011;6456;42.680;23.260;2024-02-28T11:25:44;17.97;;;13.50;;
12784;SDS011;6456;42.680;23.260;2024-02-28T11:28:11;21.30;;;13.87;;
12784;SDS011;6456;42.680;23.260;2024-02-28T11:30:40;24.57;;;16.13;;
12784;SDS011;6456;42.680;23.260;2024-02-28T11:33:14;57.87;;;17.70;;
12784;SDS011;6456;42.680;23.260;2024-02-28T11:35:43;21.00;;;11.27;;
12784;SDS011;6456;42.680;23.260;2024-02-28T11:38:10;12.57;;;8.30;;
12784;SDS011;6456;42.680;23.260;2024-02-28T11:40:47;12.10;;;7.63;;
12784;SDS011;6456;42.680;23.260;2024-02-28T11:43:17;12.30;;;7.47;;
12784;SDS011;6456;42.680;23.260;2024-02-28T11:45:47;10.97;;;7.30;;
12784;SDS011;6456;42.680;23.260;2024-02-28T11:48:16;10.70;;;7.50;;
12784;SDS011;6456;42.680;23.260;2024-02-28T11:50:43;11.37;;;7.60;;
12784;SDS011;6456;42.680;23.260;2024-02-28T11:53:13;12.57;;;8.03;;
12784;SDS011;6456;42.680;23.260;2024-02-28T11:55:40;11.50;;;8.00;;
12784;SDS011;6456;42.680;23.260;2024-02-28T11:58:12;15.33;;;9.73;;
12784;SDS011;6456;42.680;23.260;2024-02-28T12:00:46;11.50;;;8.37;;
12784;SDS011;6456;42.680;23.260;2024-02-28T12:03:14;10.47;;;6.83;;
12784;SDS011;6456;42.680;23.260;2024-02-28T12:05:46;24.60;;;8.30;;
12784;SDS011;6456;42.680;23.260;2024-02-28T12:08:17;10.60;;;6.00;;
12784;SDS011;6456;42.680;23.260;2024-02-28T12:10:45;13.70;;;6.77;;
12784;SDS011;6456;42.680;23.260;2024-02-28T12:13:16;11.83;;;5.93;;
12784;SDS011;6456;42.680;23.260;2024-02-28T12:15:43;9.97;;;6.30;;
12784;SDS011;6456;42.680;23.260;2024-02-28T12:18:14;9.23;;;6.10;;
12784;SDS011;6456;42.680;23.260;2024-02-28T12:20:43;8.00;;;5.47;;
12784;SDS011;6456;42.680;23.260;2024-02-28T12:23:11;11.20;;;5.50;;
12784;SDS011;6456;42.680;23.260;2024-02-28T12:25:47;7.37;;;5.67;;
12784;SDS011;6456;42.680;23.260;2024-02-28T12:28:14;7.67;;;5.90;;
12784;SDS011;6456;42.680;23.260;2024-02-28T12:30:41;9.13;;;6.10;;
12784;SDS011;6456;42.680;23.260;2024-02-28T12:33:10;8.80;;;6.27;;
12784;SDS011;6456;42.680;23.260;2024-02-28T12:35:36;9.73;;;6.37;;
12784;SDS011;6456;42.680;23.260;2024-02-28T12:38:09;7.70;;;5.60;;
12784;SDS011;6456;42.680;23.260;2024-02-28T12:40:41;7.57;;;6.00;;
12784;SDS011;6456;42.680;23.260;2024-02-28T12:43:08;9.07;;;5.60;;
12784;SDS011;6456;42.680;23.260;2024-02-28T12:45:35;9.53;;;5.10;;
12784;SDS011;6456;42.680;23.260;2024-02-28T12:48:02;8.53;;;4.80;;
12784;SDS011;6456;42.680;23.260;2024-02-28T12:50:31;7.50;;;5.60;;
12784;SDS011;6456;42.680;23.260;2024-02-28T12:52:59;7.10;;;5.17;;
12784;SDS011;6456;42.680;23.260;2024-02-28T12:55:28;8.33;;;5.93;;
12784;SDS011;6456;42.680;23.260;2024-02-28T12:57:55;14.80;;;7.57;;
12784;SDS011;6456;42.680;23.260;2024-02-28T13:00:24;7.73;;;6.07;;
12784;SDS011;6456;42.680;23.260;2024-02-28T13:02:52;9.10;;;5.63;;
12784;SDS011;6456;42.680;23.260;2024-02-28T13:05:20;6.20;;;5.10;;
12784;SDS011;6456;42.680;23.260;2024-02-28T13:07:47;7.73;;;5.60;;
12784;SDS011;6456;42.680;23.260;2024-02-28T13:10:14;7.97;;;5.13;;
12784;SDS011;6456;42.680;23.260;2024-02-28T13:12:49;13.53;;;5.50;;
12784;SDS011;6456;42.680;23.260;2024-02-28T13:15:25;11.63;;;6.10;;
12784;SDS011;6456;42.680;23.260;2024-02-28T13:17:52;10.97;;;7.37;;
12784;SDS011;6456;42.680;23.260;2024-02-28T13:20:22;9.67;;;6.10;;
12784;SDS011;6456;42.680;23.260;2024-02-28T13:22:51;9.17;;;6.77;;
12784;SDS011;6456;42.680;23.260;2024-02-28T13:25:21;10.07;;;7.00;;
12784;SDS011;6456;42.680;23.260;2024-02-28T13:27:49;13.60;;;7.00;;
12784;SDS011;6456;42.680;23.260;2024-02-28T13:30:19;11.97;;;6.87;;
12784;SDS011;6456;42.680;23.260;2024-02-28T13:32:47;16.20;;;7.87;;
12784;SDS011;6456;42.680;23.260;2024-02-28T13:35:15;14.20;;;8.10;;
12784;SDS011;6456;42.680;23.260;2024-02-28T13:37:42;11.00;;;8.33;;
12784;SDS011;6456;42.680;23.260;2024-02-28T13:40:09;16.43;;;9.20;;
12784;SDS011;6456;42.680;23.260;2024-02-28T13:42:40;14.23;;;8.17;;
12784;SDS011;6456;42.680;23.260;2024-02-28T13:45:09;17.83;;;8.00;;
12784;SDS011;6456;42.680;23.260;2024-02-28T13:47:37;13.33;;;7.30;;
12784;SDS011;6456;42.680;23.260;2024-02-28T13:50:05;11.83;;;7.80;;
12784;SDS011;6456;42.680;23.260;2024-02-28T13:52:34;20.97;;;9.77;;
12784;SDS011;6456;42.680;23.260;2024-02-28T13:55:02;12.33;;;7.80;;
12784;SDS011;6456;42.680;23.260;2024-02-28T13:57:32;10.73;;;6.97;;
12784;SDS011;6456;42.680;23.260;2024-02-28T14:00:04;15.30;;;8.40;;
12784;SDS011;6456;42.680;23.260;2024-02-28T14:02:38;16.70;;;7.80;;
12784;SDS011;6456;42.680;23.260;2024-02-28T14:05:06;19.70;;;8.67;;
12784;SDS011;6456;42.680;23.260;2024-02-28T14:07:33;13.17;;;8.07;;
12784;SDS011;6456;42.680;23.260;2024-02-28T14:10:05;15.00;;;8.93;;
12784;SDS011;6456;42.680;23.260;2024-02-28T14:12:33;15.70;;;8.33;;
12784;SDS011;6456;42.680;23.260;2024-02-28T14:15:00;15.33;;;7.93;;
12784;SDS011;6456;42.680;23.260;2024-02-28T14:17:28;12.87;;;7.10;;
12784;SDS011;6456;42.680;23.260;2024-02-28T14:19:59;10.53;;;7.00;;
12784;SDS011;6456;42.680;23.260;2024-02-28T14:22:26;10.03;;;6.93;;
12784;SDS011;6456;42.680;23.260;2024-02-28T14:24:53;15.90;;;7.17;;
12784;SDS011;6456;42.680;23.260;2024-02-28T14:27:20;11.33;;;6.53;;
12784;SDS011;6456;42.680;23.260;2024-02-28T14:29:47;10.07;;;6.43;;
12784;SDS011;6456;42.680;23.260;2024-02-28T14:32:14;14.00;;;6.43;;
12784;SDS011;6456;42.680;23.260;2024-02-28T14:34:49;11.47;;;6.80;;
12784;SDS011;6456;42.680;23.260;2024-02-28T14:37:20;12.30;;;6.20;;